This is the latest recevied weather packets stored in our database for station/object DK2OO-6. If no packets are shown the sender has not sent any weather packets the latest 10 day(s).
| Time | Temp. | Humidity | Pressure | Rain* | Wind** | Luminosity | Snow |
|---|---|---|---|---|---|---|---|
| 1788088929 | 24.44° C | 60% | 1010.3 hPa | 0 mm | - | - | - |
| 1788088322 | 24.44° C | 61% | 1010.4 hPa | 0 mm | - | - | - |
| 1788087112 | 24.44° C | 61% | 1010.2 hPa | 0 mm | - | - | - |
| 1788086507 | 24.44° C | 61% | 1010.4 hPa | 0 mm | - | - | - |
| 1788085907 | 24.44° C | 61% | 1010.4 hPa | 0 mm | - | - | - |
| 1788085307 | 23.89° C | 63% | 1010.5 hPa | 0 mm | - | - | - |
| 1788084092 | 23.33° C | 62% | 1010.7 hPa | 0 mm | - | - | - |
| 1788080465 | 22.78° C | 65% | 1010.9 hPa | 0 mm | - | - | - |
| 1788079861 | 22.78° C | 66% | 1010.9 hPa | 0 mm | - | - | - |
| 1788079252 | 22.22° C | 68% | 1010.9 hPa | 0 mm | - | - | - |
| 1788078650 | 21.67° C | 70% | 1011.1 hPa | 0 mm | - | - | - |
| 1788078047 | 21.11° C | 71% | 1010.9 hPa | 0 mm | - | - | - |
| 1788077447 | 20.56° C | 73% | 1010.9 hPa | 0 mm | - | - | - |
| 1788075634 | 18.89° C | 75% | 1010.9 hPa | 0 mm | - | - | - |
| 1788075032 | 18.89° C | 75% | 1010.9 hPa | 0 mm | - | - | - |
| 1788074424 | 18.89° C | 76% | 1010.8 hPa | 0 mm | - | - | - |
| 1788072003 | 16.67° C | 81% | 1010.7 hPa | 0 mm | - | - | - |
| 1788071399 | 16.67° C | 81% | 1010.7 hPa | 0 mm | - | - | - |
| 1788070798 | 16.67° C | 81% | 1010.8 hPa | 0 mm | - | - | - |
| 1788070190 | 16.11° C | 81% | 1010.7 hPa | 0 mm | - | - | - |
| 1788069589 | 16.11° C | 81% | 1010.7 hPa | 0 mm | - | - | - |
| 1788068988 | 16.11° C | 81% | 1010.7 hPa | 0 mm | - | - | - |
| 1788065965 | 15.56° C | 81% | 1010.5 hPa | 0 mm | - | - | - |
| 1788065363 | 15.56° C | 80% | 1010.5 hPa | 0 mm | - | - | - |
| 1788064755 | 15.56° C | 80% | 1010.4 hPa | 0 mm | - | - | - |
* Rain latest hour (hover to see other rain measurements)
** Current wind speed in m/s (hover to see current wind gust speed)